Time;durP1;ratioP1;P1;durP2;ratioP2;P2;SDS_P1;SDS_P2;PMS_P1;PMS_P2;Temp;Humidity;BMP_temperature;BMP_pressure;BME280_temperature;BME280_humidity;BME280_pressure;Samples;Min_cycle;Max_cycle;Signal;HPM_P1;HPM_P2
2023/01/04 00:01:34;;;;;;;3.83;3.42;;;16.80;49.50;;;;;;5016154;28;20670;-55
2023/01/04 00:04:01;;;;;;;3.15;2.95;;;16.80;49.70;;;;;;5016093;28;20593;-54
2023/01/04 00:06:29;;;;;;;3.10;2.80;;;16.80;49.50;;;;;;5033723;28;20216;-55
2023/01/04 00:08:56;;;;;;;4.57;3.10;;;16.80;49.60;;;;;;5033836;28;20220;-55
2023/01/04 00:11:23;;;;;;;3.40;3.10;;;16.80;49.50;;;;;;5033704;28;20180;-55
2023/01/04 00:13:51;;;;;;;4.07;3.53;;;16.70;49.40;;;;;;5015938;28;20199;-55
2023/01/04 00:16:22;;;;;;;4.13;3.72;;;16.70;49.40;;;;;;5033482;28;20723;-55
2023/01/04 00:18:50;;;;;;;5.18;3.67;;;16.70;49.30;;;;;;5033732;28;20650;-55
2023/01/04 00:21:18;;;;;;;3.45;3.13;;;16.70;50.00;;;;;;5033441;28;20275;-55
2023/01/04 00:23:47;;;;;;;4.10;3.60;;;16.70;49.50;;;;;;5033120;28;20216;-55
2023/01/04 00:26:16;;;;;;;4.00;3.60;;;16.70;49.60;;;;;;5033595;28;20273;-54
2023/01/04 00:28:43;;;;;;;3.40;3.10;;;16.60;49.40;;;;;;5015697;28;20200;-55
2023/01/04 00:31:11;;;;;;;3.78;3.42;;;16.60;49.50;;;;;;5015585;28;20242;-55
2023/01/04 00:33:38;;;;;;;4.03;3.60;;;16.60;49.60;;;;;;5016030;28;20634;-55
2023/01/04 00:36:06;;;;;;;3.75;3.30;;;16.60;49.50;;;;;;5015522;28;20206;-54
2023/01/04 00:38:33;;;;;;;4.32;3.38;;;16.60;49.50;;;;;;5033257;28;20195;-54
2023/01/04 00:41:02;;;;;;;3.33;3.03;;;16.60;49.50;;;;;;5015411;28;20296;-54
2023/01/04 00:43:29;;;;;;;4.30;3.47;;;16.60;49.40;;;;;;5032970;28;20212;-55
2023/01/04 00:45:56;;;;;;;3.22;2.92;;;16.50;49.40;;;;;;5054108;23;20232;-54
2023/01/04 00:48:24;;;;;;;3.20;2.97;;;16.50;49.30;;;;;;5033302;28;20258;-54
2023/01/04 00:50:51;;;;;;;3.03;2.72;;;16.50;49.40;;;;;;5015310;28;20196;-54
2023/01/04 00:53:18;;;;;;;3.55;3.20;;;16.50;49.40;;;;;;5032975;28;20607;-54
2023/01/04 00:55:45;;;;;;;3.50;3.20;;;16.50;49.60;;;;;;5032985;28;20624;-55
2023/01/04 00:58:14;;;;;;;3.88;3.50;;;16.50;49.50;;;;;;5032953;28;20697;-54
2023/01/04 01:00:41;;;;;;;3.85;3.50;;;16.50;49.50;;;;;;5032932;28;20219;-54
2023/01/04 01:03:07;;;;;;;3.50;3.20;;;16.50;49.70;;;;;;5015146;28;20230;-54
2023/01/04 01:05:35;;;;;;;3.50;3.20;;;16.40;49.70;;;;;;5015239;28;20196;-54
2023/01/04 01:08:23;;;;;;;3.15;2.95;;;16.40;49.80;;;;;;5015067;28;20222;-54
2023/01/04 01:10:50;;;;;;;3.78;2.92;;;16.40;49.70;;;;;;5032905;28;20188;-54
2023/01/04 01:13:19;;;;;;;3.35;3.05;;;16.40;50.20;;;;;;5032844;28;20267;-54
2023/01/04 01:15:46;;;;;;;3.45;3.15;;;16.40;49.70;;;;;;5015100;28;20204;-54
2023/01/04 01:18:13;;;;;;;3.50;3.20;;;16.30;49.60;;;;;;5032726;28;20287;-54
2023/01/04 01:20:43;;;;;;;4.65;3.40;;;16.30;49.60;;;;;;5015004;28;20204;-54
2023/01/04 01:23:12;;;;;;;3.30;3.00;;;16.30;49.80;;;;;;5032704;28;20697;-54
2023/01/04 01:25:39;;;;;;;3.78;3.47;;;16.30;49.80;;;;;;5032959;28;20223;-54
2023/01/04 01:28:06;;;;;;;3.38;2.83;;;16.30;49.80;;;;;;5040947;23;20318;-61
2023/01/04 01:30:35;;;;;;;3.70;3.40;;;16.30;50.00;;;;;;5032964;28;20267;-60
2023/01/04 01:33:02;;;;;;;3.35;3.03;;;16.30;50.00;;;;;;5014899;28;20653;-60
2023/01/04 01:35:29;;;;;;;3.75;3.40;;;16.30;50.00;;;;;;5015518;28;20200;-60
2023/01/04 01:37:56;;;;;;;3.75;3.35;;;16.30;50.10;;;;;;5018898;28;20253;-60
2023/01/04 01:40:23;;;;;;;5.00;3.30;;;16.30;50.00;;;;;;5036595;28;20196;-60
2023/01/04 01:42:50;;;;;;;3.33;2.72;;;16.30;50.00;;;;;;5036774;28;20196;-60
2023/01/04 01:45:24;;;;;;;2.95;2.75;;;16.20;49.80;;;;;;5036560;28;20195;-60
2023/01/04 01:47:53;;;;;;;3.20;2.92;;;16.20;49.90;;;;;;5018742;28;20269;-60
2023/01/04 01:50:24;;;;;;;3.38;3.08;;;16.20;49.70;;;;;;5018685;28;20193;-60
2023/01/04 01:52:51;;;;;;;3.60;3.30;;;16.20;49.90;;;;;;5018647;28;20645;-60
2023/01/04 01:55:18;;;;;;;3.58;3.28;;;16.20;50.00;;;;;;5016022;28;20565;-60
2023/01/04 01:57:45;;;;;;;3.42;3.13;;;16.20;50.00;;;;;;5018475;28;20223;-60
2023/01/04 02:00:13;;;;;;;3.40;3.10;;;16.20;49.90;;;;;;5036254;28;20559;-60
2023/01/04 02:02:43;;;;;;;3.10;2.80;;;16.20;49.90;;;;;;5019258;28;20211;-58
2023/01/04 02:05:11;;;;;;;3.35;3.05;;;16.20;49.90;;;;;;5018432;28;20200;-58
2023/01/04 02:07:38;;;;;;;3.13;2.90;;;16.20;50.00;;;;;;5018294;28;20220;-58
2023/01/04 02:10:07;;;;;;;3.08;2.85;;;16.10;49.70;;;;;;5018368;28;20204;-58
2023/01/04 02:12:33;;;;;;;3.80;3.20;;;16.10;49.80;;;;;;5018254;28;20207;-59
2023/01/04 02:15:01;;;;;;;3.30;3.00;;;16.10;49.70;;;;;;5036218;28;20724;-58
2023/01/04 02:17:34;;;;;;;3.50;3.20;;;16.10;49.70;;;;;;5018145;28;20243;-58
2023/01/04 02:20:25;;;;;;;3.42;3.13;;;16.10;50.30;;;;;;5036217;28;20618;-58
2023/01/04 02:23:30;;;;;;;3.22;2.92;;;16.10;49.70;;;;;;5035754;28;20187;-58
2023/01/04 02:26:10;;;;;;;3.30;3.03;;;16.10;49.70;;;;;;4989110;28;20215;-59
2023/01/04 02:28:48;;;;;;;3.03;2.83;;;16.10;49.70;;;;;;5035605;28;20581;-58
2023/01/04 02:31:25;;;;;;;3.17;2.97;;;16.10;49.70;;;;;;5017998;28;20203;-58
2023/01/04 02:33:55;;;;;;;3.33;3.03;;;16.00;49.70;;;;;;5017889;28;20195;-59
2023/01/04 02:36:25;;;;;;;3.30;2.90;;;16.00;49.60;;;;;;5035553;28;20227;-59
2023/01/04 02:39:01;;;;;;;2.90;2.70;;;16.00;49.70;;;;;;5017840;28;20215;-59
2023/01/04 02:41:29;;;;;;;3.30;3.00;;;16.00;49.70;;;;;;5035808;28;20176;-59
2023/01/04 02:46:44;;;;;;;3.50;2.83;;;16.00;49.70;;;;;;5017077;28;20696;-58
2023/01/04 02:51:59;;;;;;;3.50;3.20;;;16.00;49.70;;;;;;5017509;28;20265;-60
2023/01/04 02:54:28;;;;;;;3.10;2.90;;;16.00;49.70;;;;;;5017839;28;20563;-60
2023/01/04 02:57:16;;;;;;;3.40;3.10;;;15.90;49.60;;;;;;5017721;28;20224;-60
2023/01/04 03:00:10;;;;;;;3.30;3.00;;;15.90;49.60;;;;;;5017616;28;20261;-60
2023/01/04 03:06:17;;;;;;;2.80;2.60;;;15.90;49.60;;;;;;4984118;28;20219;-60
2023/01/04 03:08:51;;;;;;;3.20;3.00;;;15.90;49.70;;;;;;5017338;28;20204;-60
2023/01/04 03:14:05;;;;;;;3.15;2.85;;;15.90;49.60;;;;;;5035199;28;20175;-60
2023/01/04 03:16:33;;;;;;;3.17;2.80;;;15.90;49.60;;;;;;5034936;28;20212;-60
2023/01/04 03:19:09;;;;;;;3.10;2.80;;;15.80;49.60;;;;;;5017169;28;20269;-60
2023/01/04 03:21:37;;;;;;;2.67;2.47;;;15.80;49.50;;;;;;5017080;28;20207;-60
2023/01/04 03:35:42;;;;;;;3.63;3.25;;;15.70;49.50;;;;;;4974025;28;20675;-60
2023/01/04 03:49:19;;;;;;;3.53;3.22;;;15.70;49.60;;;;;;4973577;28;20628;-60
2023/01/04 03:51:48;;;;;;;3.20;3.00;;;15.70;49.80;;;;;;4973481;28;20609;-60
2023/01/04 03:54:16;;;;;;;3.50;3.20;;;15.70;49.90;;;;;;5006312;28;20210;-60
2023/01/04 03:56:44;;;;;;;3.15;2.92;;;15.70;49.90;;;;;;5016246;28;20216;-60
2023/01/04 03:59:11;;;;;;;3.67;3.38;;;15.70;49.80;;;;;;5015530;28;20589;-60
2023/01/04 04:01:38;;;;;;;3.38;3.08;;;15.70;50.00;;;;;;5016284;28;20573;-60
2023/01/04 04:09:35;;;;;;;3.40;3.10;;;15.60;50.00;;;;;;5033939;28;20187;-62
2023/01/04 04:12:02;;;;;;;3.30;3.00;;;15.60;50.00;;;;;;5016085;28;20196;-62
2023/01/04 04:14:29;;;;;;;4.05;3.50;;;15.70;50.10;;;;;;5016155;28;20200;-62
2023/01/04 04:16:56;;;;;;;3.75;3.45;;;15.70;50.20;;;;;;5015975;28;20243;-62
2023/01/04 04:19:23;;;;;;;3.40;3.10;;;15.60;50.30;;;;;;5033661;28;20188;-62
2023/01/04 04:21:51;;;;;;;3.78;3.47;;;15.60;50.40;;;;;;5015939;28;20206;-62
2023/01/04 04:24:20;;;;;;;3.70;3.40;;;15.60;50.50;;;;;;5015858;28;20251;-62
2023/01/04 04:26:47;;;;;;;3.63;3.33;;;15.60;50.80;;;;;;5015649;28;20677;-61
2023/01/04 04:29:15;;;;;;;3.88;3.58;;;15.50;50.90;;;;;;5015727;28;20214;-61
2023/01/04 04:31:42;;;;;;;4.05;3.70;;;15.50;51.00;;;;;;5033614;28;20192;-61
2023/01/04 04:34:10;;;;;;;3.55;3.25;;;15.50;51.00;;;;;;5016264;28;20196;-61
2023/01/04 04:36:37;;;;;;;3.67;3.38;;;15.60;51.40;;;;;;5015723;28;20228;-61
2023/01/04 04:39:05;;;;;;;3.42;3.13;;;15.60;51.30;;;;;;5015852;28;20298;-61
2023/01/04 04:41:37;;;;;;;3.10;2.90;;;15.60;51.50;;;;;;5033464;28;20620;-61
2023/01/04 04:44:05;;;;;;;4.30;3.20;;;15.70;51.20;;;;;;5033492;28;20656;-61
2023/01/04 04:46:32;;;;;;;3.08;2.88;;;15.70;51.10;;;;;;5015558;28;20215;-61
2023/01/04 04:49:01;;;;;;;4.22;3.40;;;15.70;51.10;;;;;;5015575;28;20668;-61
2023/01/04 04:51:28;;;;;;;3.63;3.33;;;15.80;50.90;;;;;;5015640;28;20206;-61
2023/01/04 04:53:55;;;;;;;3.33;3.03;;;15.80;50.80;;;;;;5015582;28;20196;-61
2023/01/04 04:56:23;;;;;;;3.30;3.00;;;15.80;50.60;;;;;;5033173;28;20212;-61
2023/01/04 04:58:51;;;;;;;3.35;3.08;;;15.80;50.50;;;;;;5015612;28;20231;-61
2023/01/04 05:01:18;;;;;;;3.45;3.15;;;15.90;50.40;;;;;;5033191;28;20185;-60
2023/01/04 05:03:45;;;;;;;3.30;3.00;;;15.90;50.40;;;;;;5015486;28;20204;-60
2023/01/04 05:06:12;;;;;;;3.50;3.20;;;15.90;50.40;;;;;;5015373;28;20589;-60
2023/01/04 05:08:39;;;;;;;3.17;2.88;;;15.90;50.50;;;;;;5015492;28;20199;-60
2023/01/04 05:11:07;;;;;;;3.20;3.00;;;15.90;50.20;;;;;;5018405;28;20206;-59
2023/01/04 05:13:34;;;;;;;3.70;2.97;;;15.90;50.10;;;;;;5019447;28;20192;-59
2023/01/04 05:16:01;;;;;;;3.30;3.00;;;15.90;50.00;;;;;;5036977;28;20212;-58
2023/01/04 05:18:29;;;;;;;3.20;3.00;;;15.90;50.10;;;;;;5010676;28;20215;-59
2023/01/04 05:20:56;;;;;;;3.22;2.92;;;16.00;50.10;;;;;;5032812;28;20199;-59
2023/01/04 05:23:23;;;;;;;3.30;3.00;;;16.00;50.00;;;;;;5019185;28;20200;-59
2023/01/04 05:25:51;;;;;;;3.40;3.10;;;16.00;50.00;;;;;;5036760;28;20208;-59
2023/01/04 05:28:19;;;;;;;3.30;2.95;;;16.00;49.90;;;;;;5018858;28;20276;-59
2023/01/04 05:30:50;;;;;;;3.95;3.10;;;16.10;50.00;;;;;;5019042;28;20192;-59
2023/01/04 05:33:18;;;;;;;3.05;2.85;;;16.10;50.00;;;;;;5019074;28;20226;-59
2023/01/04 05:35:46;;;;;;;2.90;2.67;;;16.10;49.90;;;;;;5018836;28;20196;-59
2023/01/04 05:38:13;;;;;;;3.42;3.10;;;16.20;49.80;;;;;;5018976;28;20250;-58
2023/01/04 05:40:40;;;;;;;2.90;2.70;;;16.20;49.90;;;;;;5036591;28;20199;-59
2023/01/04 05:43:07;;;;;;;3.33;3.03;;;16.20;49.90;;;;;;5018284;28;20290;-58
2023/01/04 05:45:34;;;;;;;3.58;3.28;;;16.20;50.10;;;;;;5036037;28;20207;-58
2023/01/04 05:48:03;;;;;;;3.95;3.17;;;16.20;50.10;;;;;;5018799;28;20693;-58
2023/01/04 05:50:30;;;;;;;3.00;2.80;;;16.30;50.10;;;;;;5018622;28;20603;-59
2023/01/04 05:53:04;;;;;;;3.15;2.92;;;16.30;50.30;;;;;;5018752;28;20192;-57
2023/01/04 05:55:31;;;;;;;3.55;3.20;;;16.30;51.00;;;;;;5018583;28;20196;-58
2023/01/04 05:57:58;;;;;;;4.03;2.88;;;16.40;50.40;;;;;;5018466;28;20299;-62
2023/01/04 06:00:25;;;;;;;3.22;2.90;;;16.40;50.40;;;;;;5036099;28;20687;-59
2023/01/04 06:02:54;;;;;;;3.38;3.08;;;16.40;50.40;;;;;;5036099;28;20561;-57
2023/01/04 06:05:23;;;;;;;3.67;3.30;;;16.50;50.40;;;;;;5036042;28;20295;-58
2023/01/04 06:07:50;;;;;;;3.13;2.83;;;16.50;50.20;;;;;;5018323;28;20220;-59
2023/01/04 06:10:18;;;;;;;3.15;2.88;;;16.50;50.20;;;;;;5036107;28;20545;-58
2023/01/04 06:12:45;;;;;;;3.35;3.05;;;16.50;50.20;;;;;;5036075;28;20200;-59
2023/01/04 06:15:12;;;;;;;2.95;2.75;;;16.50;50.20;;;;;;5018141;28;20657;-58
2023/01/04 06:17:40;;;;;;;3.88;3.00;;;16.60;50.20;;;;;;5018476;28;20220;-58
2023/01/04 06:20:09;;;;;;;3.45;3.10;;;16.60;49.60;;;;;;5018201;28;20206;-60
2023/01/04 06:22:39;;;;;;;4.07;3.20;;;16.60;49.50;;;;;;5035285;28;20219;-60
2023/01/04 06:25:07;;;;;;;3.45;3.15;;;16.60;49.70;;;;;;5018013;28;20196;-58
2023/01/04 06:27:33;;;;;;;2.88;2.63;;;16.70;49.50;;;;;;5035433;28;20571;-61
2023/01/04 06:30:02;;;;;;;3.30;3.00;;;16.70;49.50;;;;;;5017967;28;20198;-57
2023/01/04 06:32:30;;;;;;;3.35;3.05;;;16.70;49.50;;;;;;5035731;28;20188;-63
2023/01/04 06:34:57;;;;;;;3.08;2.78;;;16.70;49.90;;;;;;5017998;28;20196;-57
2023/01/04 06:37:23;;;;;;;3.40;3.10;;;16.70;49.70;;;;;;5017970;28;20231;-58
2023/01/04 06:39:52;;;;;;;3.08;2.83;;;16.70;49.50;;;;;;5017824;28;20196;-57
2023/01/04 06:45:04;;;;;;;3.10;2.80;;;16.70;49.60;;;;;;5035346;28;20279;-55
2023/01/04 06:47:31;;;;;;;3.28;2.85;;;16.70;49.60;;;;;;5035227;28;20212;-57
2023/01/04 06:50:00;;;;;;;3.10;2.85;;;16.70;49.50;;;;;;5018994;28;20616;-62
2023/01/04 06:52:27;;;;;;;3.15;2.95;;;16.80;49.70;;;;;;5035004;28;20207;-61
2023/01/04 06:54:55;;;;;;;3.05;2.80;;;16.80;49.50;;;;;;5017314;28;20194;-61
2023/01/04 06:57:22;;;;;;;3.08;2.85;;;16.80;49.40;;;;;;5017256;28;20222;-61
2023/01/04 06:59:49;;;;;;;3.05;2.75;;;16.70;49.00;;;;;;5017247;28;20196;-61
2023/01/04 07:02:16;;;;;;;2.83;2.63;;;16.80;49.10;;;;;;5017778;28;20211;-61
2023/01/04 07:04:43;;;;;;;2.85;2.55;;;16.80;49.00;;;;;;5034899;28;20208;-61
2023/01/04 07:07:10;;;;;;;2.72;2.53;;;16.80;49.10;;;;;;5018193;28;20310;-61
2023/01/04 07:09:38;;;;;;;2.90;2.70;;;16.80;49.50;;;;;;5034844;28;20196;-61
2023/01/04 07:12:08;;;;;;;2.78;2.58;;;16.80;49.30;;;;;;5017344;28;20564;-61
2023/01/04 07:14:35;;;;;;;2.88;2.67;;;16.80;49.40;;;;;;5016690;28;20245;-60
2023/01/04 07:17:02;;;;;;;2.80;2.60;;;16.80;49.30;;;;;;5017281;28;20223;-60
2023/01/04 07:19:29;;;;;;;2.50;2.30;;;16.80;49.30;;;;;;5017433;28;20207;-61
2023/01/04 07:21:57;;;;;;;2.78;2.47;;;16.80;49.20;;;;;;5016955;28;20192;-60
2023/01/04 07:24:24;;;;;;;2.80;2.60;;;16.80;49.10;;;;;;5016881;28;20679;-60
2023/01/04 07:26:51;;;;;;;3.25;2.78;;;16.80;48.90;;;;;;5016936;28;20740;-60
2023/01/04 07:29:21;;;;;;;2.72;2.53;;;16.80;48.70;;;;;;5016498;28;20719;-61
2023/01/04 07:31:49;;;;;;;3.15;2.85;;;16.80;49.00;;;;;;5016673;28;20728;-61
2023/01/04 07:34:17;;;;;;;3.17;2.97;;;16.80;48.70;;;;;;5034390;28;20195;-61
2023/01/04 07:36:44;;;;;;;3.25;2.95;;;16.80;48.50;;;;;;5016601;28;20216;-61
2023/01/04 07:39:12;;;;;;;3.03;2.80;;;16.90;48.40;;;;;;5034544;28;20198;-59
2023/01/04 07:41:39;;;;;;;3.35;2.67;;;17.00;48.60;;;;;;5016684;28;20192;-59
2023/01/04 07:44:08;;;;;;;2.88;2.58;;;17.00;48.10;;;;;;5034422;28;20184;-60
2023/01/04 07:46:37;;;;;;;3.42;3.10;;;17.00;48.50;;;;;;5034068;28;20699;-59
2023/01/04 07:49:04;;;;;;;3.10;2.85;;;17.00;48.70;;;;;;5034170;28;20191;-60
2023/01/04 07:51:32;;;;;;;3.72;2.83;;;17.10;48.30;;;;;;5016338;28;20573;-60
2023/01/04 07:53:59;;;;;;;3.10;2.80;;;17.10;48.40;;;;;;5034088;28;20232;-59
2023/01/04 07:56:26;;;;;;;3.25;2.95;;;17.20;48.40;;;;;;5033982;28;20208;-60
2023/01/04 07:58:55;;;;;;;3.97;2.58;;;17.20;48.30;;;;;;5016209;28;20273;-60
2023/01/04 08:01:23;;;;;;;2.80;2.60;;;17.20;48.40;;;;;;5034021;28;20192;-59
2023/01/04 08:03:53;;;;;;;4.15;3.22;;;17.10;48.40;;;;;;5034130;28;20199;-60
2023/01/04 08:06:21;;;;;;;3.28;3.00;;;17.20;48.60;;;;;;5015961;28;20228;-60
2023/01/04 08:08:48;;;;;;;5.00;3.30;;;17.20;47.90;;;;;;5016416;28;20199;-59
2023/01/04 08:11:16;;;;;;;5.00;3.42;;;17.20;47.50;;;;;;5017140;28;20604;-59
2023/01/04 08:13:43;;;;;;;3.30;3.00;;;17.20;47.30;;;;;;5033673;28;20243;-60
2023/01/04 08:16:19;;;;;;;3.83;3.05;;;17.20;46.90;;;;;;5017740;28;20208;-61
2023/01/04 08:18:46;;;;;;;3.80;3.20;;;17.20;47.10;;;;;;5021720;28;20200;-62
2023/01/04 08:21:14;;;;;;;4.22;3.10;;;17.20;47.20;;;;;;5017899;28;20211;-62
2023/01/04 08:23:41;;;;;;;3.80;3.15;;;17.20;47.40;;;;;;5015934;28;20196;-62
2023/01/04 08:26:09;;;;;;;3.63;3.03;;;17.20;47.50;;;;;;5015685;28;20234;-62
2023/01/04 08:28:37;;;;;;;3.70;3.05;;;17.10;47.50;;;;;;5016171;28;20694;-63
2023/01/04 08:31:05;;;;;;;4.25;3.15;;;17.10;47.80;;;;;;5015884;28;20215;-64
2023/01/04 08:33:32;;;;;;;3.60;2.72;;;17.10;47.60;;;;;;5015675;28;20246;-64
2023/01/04 08:36:07;;;;;;;4.05;2.90;;;17.10;47.80;;;;;;5033746;28;20214;-64
2023/01/04 08:38:35;;;;;;;2.97;2.67;;;17.10;47.90;;;;;;5016129;28;20685;-64
2023/01/04 08:41:02;;;;;;;3.35;3.03;;;17.10;48.20;;;;;;5015749;28;20203;-64
2023/01/04 08:43:29;;;;;;;4.45;3.17;;;17.10;48.20;;;;;;5015669;28;20290;-65
2023/01/04 08:45:56;;;;;;;3.40;2.60;;;17.10;48.50;;;;;;5015079;28;20701;-62
2023/01/04 08:48:23;;;;;;;3.60;2.63;;;17.10;48.70;;;;;;5015685;28;20668;-61
2023/01/04 08:50:50;;;;;;;3.38;2.80;;;17.10;48.50;;;;;;5015643;28;20263;-62
2023/01/04 08:53:17;;;;;;;4.45;2.80;;;17.20;48.70;;;;;;5015583;28;20208;-63
2023/01/04 08:55:50;;;;;;;3.10;2.80;;;17.20;48.60;;;;;;5033058;28;20184;-62
2023/01/04 08:58:18;;;;;;;3.13;2.83;;;17.20;48.60;;;;;;5015525;28;20275;-63
2023/01/04 09:00:44;;;;;;;3.85;2.70;;;17.20;48.30;;;;;;5033188;28;20649;-63
2023/01/04 09:03:12;;;;;;;3.65;2.58;;;17.20;48.60;;;;;;5015444;28;20211;-63
2023/01/04 09:05:39;;;;;;;3.08;2.80;;;17.20;48.40;;;;;;5015388;28;20212;-63
2023/01/04 09:08:06;;;;;;;2.78;2.53;;;17.20;48.50;;;;;;5015604;28;20196;-62
2023/01/04 09:10:33;;;;;;;2.72;2.47;;;17.20;48.60;;;;;;5032818;28;20199;-62
2023/01/04 09:13:01;;;;;;;4.57;2.88;;;17.20;48.60;;;;;;5015587;28;20245;-60
2023/01/04 09:15:28;;;;;;;3.70;2.40;;;17.20;48.60;;;;;;5015404;28;20218;-60
2023/01/04 09:17:55;;;;;;;2.80;2.60;;;17.20;48.70;;;;;;5015307;28;20596;-60
2023/01/04 09:20:22;;;;;;;3.28;2.60;;;17.20;48.70;;;;;;5015300;28;20196;-60
2023/01/04 09:22:50;;;;;;;2.97;2.70;;;17.20;48.70;;;;;;5015329;28;20211;-60
2023/01/04 09:25:17;;;;;;;3.22;2.53;;;17.30;48.80;;;;;;4999005;28;20230;-61
2023/01/04 09:27:44;;;;;;;3.42;2.10;;;17.30;48.80;;;;;;5033514;28;20339;-60
2023/01/04 09:30:15;;;;;;;2.70;2.00;;;17.30;48.70;;;;;;5015438;28;20203;-60
2023/01/04 09:32:43;;;;;;;2.28;2.10;;;17.30;48.70;;;;;;5033709;28;20196;-61
2023/01/04 09:35:11;;;;;;;2.65;2.22;;;17.30;48.60;;;;;;5021246;28;20185;-61
2023/01/04 09:37:38;;;;;;;2.50;2.30;;;17.30;48.60;;;;;;5032846;28;20242;-60
2023/01/04 09:40:07;;;;;;;3.92;2.03;;;17.30;48.50;;;;;;5032916;28;20192;-60
2023/01/04 09:42:36;;;;;;;2.50;2.30;;;17.30;48.60;;;;;;5015890;28;20203;-60
2023/01/04 09:45:07;;;;;;;2.20;2.00;;;17.40;48.90;;;;;;5015071;28;20207;-60
2023/01/04 09:47:38;;;;;;;3.72;2.35;;;17.40;48.80;;;;;;5014962;28;20238;-60
2023/01/04 09:50:09;;;;;;;2.65;2.08;;;17.50;48.60;;;;;;5015557;28;20283;-60
2023/01/04 09:52:43;;;;;;;2.58;2.17;;;17.50;48.40;;;;;;5015012;28;20204;-60
2023/01/04 09:55:12;;;;;;;3.22;2.10;;;17.50;48.20;;;;;;5015232;28;20199;-60
2023/01/04 09:57:41;;;;;;;2.67;1.73;;;17.50;48.30;;;;;;5034684;28;20230;-60
2023/01/04 10:00:13;;;;;;;2.15;1.95;;;17.50;48.60;;;;;;5018557;28;20653;-60
2023/01/04 10:02:42;;;;;;;2.13;1.80;;;17.50;48.60;;;;;;5036543;28;20617;-60
2023/01/04 10:05:13;;;;;;;2.33;2.00;;;17.50;48.60;;;;;;5018956;28;20203;-62
2023/01/04 10:07:40;;;;;;;3.88;1.77;;;17.60;48.50;;;;;;5036122;28;20230;-62
2023/01/04 10:10:10;;;;;;;2.03;1.75;;;17.70;49.10;;;;;;5018478;28;20199;-62
2023/01/04 10:12:44;;;;;;;1.80;1.70;;;17.70;48.40;;;;;;5036103;28;20193;-62
2023/01/04 10:15:18;;;;;;;1.73;1.60;;;17.70;48.40;;;;;;5018268;28;20633;-62
2023/01/04 10:18:00;;;;;;;1.95;1.73;;;17.80;48.50;;;;;;5018196;28;20227;-63
2023/01/04 10:20:49;;;;;;;2.83;1.77;;;17.80;48.30;;;;;;5018199;28;20203;-62
2023/01/04 10:23:20;;;;;;;1.80;1.60;;;17.90;48.30;;;;;;5020041;28;20227;-62
2023/01/04 10:25:49;;;;;;;1.80;1.70;;;17.90;48.20;;;;;;5019085;28;20216;-63
2023/01/04 10:28:39;;;;;;;1.70;1.60;;;17.90;48.00;;;;;;5017820;28;20235;-62
2023/01/04 10:31:10;;;;;;;1.63;1.52;;;18.00;47.90;;;;;;5035675;28;20199;-62
2023/01/04 10:33:46;;;;;;;2.40;1.70;;;18.00;48.00;;;;;;5017976;28;20207;-62
2023/01/04 10:36:17;;;;;;;1.80;1.70;;;18.00;48.10;;;;;;5017790;28;20212;-62
2023/01/04 10:38:45;;;;;;;2.65;1.55;;;18.00;47.80;;;;;;5018025;28;20196;-61
2023/01/04 10:41:17;;;;;;;2.17;1.50;;;18.00;47.80;;;;;;5017750;28;20200;-61
2023/01/04 10:43:47;;;;;;;2.03;1.80;;;18.00;47.90;;;;;;5017696;28;20192;-61
2023/01/04 10:46:17;;;;;;;2.08;1.90;;;18.00;47.80;;;;;;5017510;28;20297;-61
2023/01/04 10:48:49;;;;;;;1.70;1.60;;;18.00;48.10;;;;;;5017577;28;20668;-61
2023/01/04 10:51:20;;;;;;;2.38;1.67;;;18.10;47.80;;;;;;5035302;28;20180;-61
2023/01/04 10:53:48;;;;;;;1.55;1.45;;;18.10;47.70;;;;;;5035468;28;20192;-61
2023/01/04 10:56:18;;;;;;;1.80;1.65;;;18.10;48.10;;;;;;5017358;28;20226;-61
2023/01/04 10:58:47;;;;;;;1.88;1.60;;;18.10;47.80;;;;;;5035103;28;20562;-62
2023/01/04 11:01:18;;;;;;;2.20;1.60;;;18.20;47.90;;;;;;5017377;28;20283;-62
2023/01/04 11:03:47;;;;;;;1.92;1.40;;;18.20;48.00;;;;;;5035075;28;20223;-61
2023/01/04 11:06:15;;;;;;;1.73;1.50;;;18.20;47.70;;;;;;5034817;28;20216;-62
2023/01/04 11:08:45;;;;;;;2.25;1.58;;;18.20;47.60;;;;;;5016835;28;20199;-61
2023/01/04 11:11:14;;;;;;;1.60;1.50;;;18.20;47.70;;;;;;5017167;28;20196;-61
2023/01/04 11:13:41;;;;;;;1.80;1.70;;;18.20;47.60;;;;;;5017020;28;20215;-61
2023/01/04 11:16:08;;;;;;;1.80;1.70;;;18.30;47.60;;;;;;5034751;28;20222;-61
2023/01/04 11:18:36;;;;;;;2.17;1.98;;;18.20;48.10;;;;;;5034697;28;20683;-61
2023/01/04 11:21:06;;;;;;;1.73;1.63;;;18.30;47.50;;;;;;5034740;28;20196;-61
2023/01/04 11:23:33;;;;;;;2.00;1.80;;;18.30;47.50;;;;;;5016983;28;20192;-62
2023/01/04 11:26:06;;;;;;;1.98;1.83;;;18.30;47.40;;;;;;5016775;28;20247;-62
2023/01/04 11:28:36;;;;;;;1.98;1.70;;;18.40;47.40;;;;;;5016743;28;20208;-61
2023/01/04 11:31:05;;;;;;;2.10;1.67;;;18.40;47.40;;;;;;5034644;28;20196;-61
2023/01/04 11:33:32;;;;;;;1.60;1.50;;;18.40;47.30;;;;;;5034455;28;20198;-61
2023/01/04 11:36:00;;;;;;;1.90;1.70;;;18.40;47.20;;;;;;5016708;28;20216;-61
2023/01/04 11:38:30;;;;;;;1.58;1.48;;;18.40;47.10;;;;;;5034376;28;20542;-61
2023/01/04 11:40:58;;;;;;;1.67;1.50;;;18.50;47.30;;;;;;5016695;28;20204;-61
2023/01/04 11:43:26;;;;;;;1.60;1.50;;;18.50;47.20;;;;;;5016536;28;20665;-61
2023/01/04 11:45:59;;;;;;;2.67;1.75;;;18.50;47.50;;;;;;5016394;28;20222;-61
2023/01/04 11:48:34;;;;;;;1.33;1.23;;;18.50;47.40;;;;;;5016422;28;20215;-61
2023/01/04 11:51:02;;;;;;;1.50;1.40;;;18.50;47.40;;;;;;5016354;28;20738;-61
2023/01/04 11:53:31;;;;;;;2.10;1.40;;;18.50;47.30;;;;;;5016410;28;20196;-61
2023/01/04 11:56:13;;;;;;;1.92;1.65;;;18.40;47.20;;;;;;5014639;28;20708;-65
2023/01/04 11:58:40;;;;;;;2.00;1.58;;;18.50;47.20;;;;;;5016359;28;20191;-61
2023/01/04 12:01:10;;;;;;;1.50;1.40;;;18.40;47.20;;;;;;5016316;28;20211;-62
2023/01/04 12:03:38;;;;;;;3.17;1.70;;;18.50;47.20;;;;;;5016285;28;20246;-61
2023/01/04 12:06:10;;;;;;;1.77;1.48;;;18.50;47.30;;;;;;5016163;28;20302;-62
2023/01/04 12:08:40;;;;;;;1.58;1.48;;;18.50;47.50;;;;;;5016013;28;20207;-61
2023/01/04 12:11:14;;;;;;;3.65;1.50;;;18.50;47.40;;;;;;5016670;28;20191;-62
2023/01/04 12:13:42;;;;;;;1.50;1.40;;;18.50;47.40;;;;;;5016044;28;20648;-61
2023/01/04 12:16:14;;;;;;;1.95;1.40;;;18.50;47.20;;;;;;5033754;28;20208;-62
2023/01/04 12:18:42;;;;;;;1.27;1.17;;;18.50;47.20;;;;;;5015938;28;20200;-62
2023/01/04 12:21:11;;;;;;;2.33;1.45;;;18.50;47.20;;;;;;5015507;28;20617;-63
2023/01/04 12:23:42;;;;;;;1.40;1.30;;;18.50;47.30;;;;;;5015980;28;20299;-62
2023/01/04 12:26:10;;;;;;;1.45;1.35;;;18.50;47.30;;;;;;5033489;28;20216;-63
2023/01/04 12:28:38;;;;;;;1.50;1.40;;;18.50;47.20;;;;;;5033593;28;20204;-63
2023/01/04 12:31:31;;;;;;;1.83;1.45;;;18.60;47.20;;;;;;5016939;28;20571;-63
2023/01/04 12:33:59;;;;;;;2.00;1.90;;;18.60;47.20;;;;;;5015777;28;20606;-63
2023/01/04 12:36:55;;;;;;;1.92;1.40;;;18.60;47.20;;;;;;5015573;28;20281;-62
2023/01/04 12:39:42;;;;;;;5.68;1.60;;;18.60;47.20;;;;;;5018135;28;20199;-60
2023/01/04 12:42:12;;;;;;;1.58;1.33;;;18.60;47.10;;;;;;5033701;28;20272;-59
2023/01/04 12:45:22;;;;;;;2.00;1.80;;;18.50;47.30;;;;;;5015608;28;20266;-58
2023/01/04 12:51:20;;;;;;;3.47;3.13;;;18.60;47.90;;;;;;5013360;28;20603;-53
2023/01/04 12:54:05;;;;;;;2.10;1.90;;;18.60;47.90;;;;;;5013322;28;20694;-54
2023/01/04 12:57:23;;;;;;;1.50;1.40;;;18.60;47.90;;;;;;5013446;28;20219;-54
2023/01/04 12:59:54;;;;;;;1.60;1.50;;;18.60;48.30;;;;;;5013094;28;20189;-55
2023/01/04 13:02:22;;;;;;;1.40;1.30;;;18.70;48.20;;;;;;5013216;28;20199;-54
2023/01/04 13:04:49;;;;;;;3.08;2.00;;;18.70;48.20;;;;;;5010728;28;20193;-55
2023/01/04 13:07:21;;;;;;;3.83;1.40;;;18.70;48.20;;;;;;4995549;28;20228;-55
2023/01/04 13:09:51;;;;;;;1.77;1.30;;;18.70;48.40;;;;;;5013386;28;20639;-55
2023/01/04 13:12:30;;;;;;;1.55;1.40;;;18.70;48.90;;;;;;4995551;28;20227;-54
2023/01/04 13:14:59;;;;;;;2.28;1.55;;;18.60;48.70;;;;;;5013136;28;20332;-54
2023/01/04 13:17:26;;;;;;;3.50;2.75;;;18.60;48.60;;;;;;5013018;28;20212;-54
2023/01/04 13:19:54;;;;;;;1.58;1.48;;;18.60;48.90;;;;;;5013071;28;20279;-54
2023/01/04 13:22:23;;;;;;;2.08;1.30;;;18.60;48.70;;;;;;4995541;28;20224;-54
2023/01/04 13:24:50;;;;;;;1.58;1.48;;;18.60;48.70;;;;;;4995441;28;20216;-55
2023/01/04 13:27:19;;;;;;;1.60;1.50;;;18.60;48.80;;;;;;5012890;28;20635;-54
2023/01/04 13:29:47;;;;;;;1.77;1.60;;;18.60;48.70;;;;;;5012882;28;20200;-54
2023/01/04 13:32:16;;;;;;;3.15;1.42;;;18.70;48.80;;;;;;5016323;28;20271;-54
2023/01/04 13:34:50;;;;;;;1.73;1.40;;;18.70;48.60;;;;;;5016690;28;20212;-55
2023/01/04 13:37:26;;;;;;;1.50;1.40;;;18.80;48.60;;;;;;4999008;28;20212;-55
2023/01/04 13:40:16;;;;;;;2.40;1.27;;;18.80;49.20;;;;;;5016925;28;20177;-54
2023/01/04 13:42:44;;;;;;;2.38;1.42;;;18.80;48.40;;;;;;5013435;28;20213;-55
2023/01/04 13:45:38;;;;;;;1.83;1.52;;;18.80;48.40;;;;;;5016460;28;20271;-54
2023/01/04 13:48:09;;;;;;;3.47;1.27;;;18.90;48.30;;;;;;4992578;28;20225;-55